Racine, Wisconsin
Current Conditions -  °F | °C
As of 3:09 PM on Saturday 22 Nov 2014 (Local Time) from KRAC Reporting Station
Haze Haze  
Wind Chill: 40°   Ceiling: 3900
Heat Index: 45°   Visibility: 3mi
Dew Point: 42°   Wind: 9mph
Humidity: 90%   Direction: 200°SSW
Pressure: 29.84"   Gusts: NA
Location:  42.73°N, 87.79°W
Report Text: KRAC 222109Z AUTO 20008KT 3SM BR FEW010 SCT013 OVC039 07/06 A2984 RMK AO2 T00720056
Loading
Personal Weather Stations






























Interactive Weather Map New forecast layout! Learn more

10-Day Weather Forecast

Advertisements
Track Severe Weather on mobile